sensor_id;sensor_type;location;lat;lon;timestamp;pressure;altitude;pressure_sealevel;temperature;humidity
57248;BME280;55809;46.618;10.764;2023-04-04T00:01:20;92755.38;;;4.65;34.56
57248;BME280;55809;46.618;10.764;2023-04-04T00:03:48;92693.84;;;4.28;34.96
57248;BME280;55809;46.618;10.764;2023-04-04T00:06:17;92748.47;;;4.64;33.99
57248;BME280;55809;46.618;10.764;2023-04-04T00:08:45;92745.44;;;4.65;34.80
57248;BME280;55809;46.618;10.764;2023-04-04T00:11:15;92751.56;;;4.66;34.87
57248;BME280;55809;46.618;10.764;2023-04-04T00:13:47;92749.56;;;4.59;34.73
57248;BME280;55809;46.618;10.764;2023-04-04T00:16:15;92740.03;;;4.58;34.64
57248;BME280;55809;46.618;10.764;2023-04-04T00:18:43;92738.47;;;4.57;34.46
57248;BME280;55809;46.618;10.764;2023-04-04T00:21:12;92739.66;;;4.60;34.21
57248;BME280;55809;46.618;10.764;2023-04-04T00:23:40;92740.13;;;4.69;34.26
57248;BME280;55809;46.618;10.764;2023-04-04T00:26:08;92739.81;;;4.74;34.30
57248;BME280;55809;46.618;10.764;2023-04-04T00:28:38;92740.16;;;4.73;34.12
57248;BME280;55809;46.618;10.764;2023-04-04T00:31:08;92740.88;;;4.66;33.55
57248;BME280;55809;46.618;10.764;2023-04-04T00:33:37;92738.94;;;4.66;34.14
57248;BME280;55809;46.618;10.764;2023-04-04T00:36:05;92728.69;;;4.68;34.21
57248;BME280;55809;46.618;10.764;2023-04-04T00:38:34;92729.84;;;4.71;33.54
57248;BME280;55809;46.618;10.764;2023-04-04T00:41:05;92735.91;;;4.64;34.45
57248;BME280;55809;46.618;10.764;2023-04-04T00:43:35;92741.25;;;4.64;33.20
57248;BME280;55809;46.618;10.764;2023-04-04T00:46:08;92700.38;;;4.30;34.00
57248;BME280;55809;46.618;10.764;2023-04-04T00:48:40;92729.22;;;4.47;33.59
57248;BME280;55809;46.618;10.764;2023-04-04T00:51:08;92744.47;;;4.47;33.99
57248;BME280;55809;46.618;10.764;2023-04-04T00:53:37;92749.03;;;4.46;33.70
57248;BME280;55809;46.618;10.764;2023-04-04T00:56:13;92749.41;;;4.45;33.85
57248;BME280;55809;46.618;10.764;2023-04-04T00:58:42;92744.84;;;4.45;34.17
57248;BME280;55809;46.618;10.764;2023-04-04T01:01:19;92740.25;;;4.46;33.75
57248;BME280;55809;46.618;10.764;2023-04-04T01:03:51;92756.25;;;4.42;34.22
57248;BME280;55809;46.618;10.764;2023-04-04T01:06:19;92750.53;;;4.44;34.16
57248;BME280;55809;46.618;10.764;2023-04-04T01:08:48;92745.19;;;4.44;34.84
57248;BME280;55809;46.618;10.764;2023-04-04T01:11:18;92759.34;;;4.44;34.72
57248;BME280;55809;46.618;10.764;2023-04-04T01:13:47;92750.88;;;4.39;33.86
57248;BME280;55809;46.618;10.764;2023-04-04T01:16:17;92755.41;;;4.35;34.31
57248;BME280;55809;46.618;10.764;2023-04-04T01:18:46;92725.38;;;4.15;34.77
57248;BME280;55809;46.618;10.764;2023-04-04T01:21:15;92751.84;;;4.27;35.23
57248;BME280;55809;46.618;10.764;2023-04-04T01:23:48;92741.41;;;4.15;35.48
57248;BME280;55809;46.618;10.764;2023-04-04T01:26:25;92753.25;;;4.17;35.53
57248;BME280;55809;46.618;10.764;2023-04-04T01:28:54;92747.34;;;4.05;35.80
57248;BME280;55809;46.618;10.764;2023-04-04T01:31:26;92747.25;;;3.97;36.44
57248;BME280;55809;46.618;10.764;2023-04-04T01:34:01;92743.78;;;3.93;36.20
57248;BME280;55809;46.618;10.764;2023-04-04T01:36:38;92745.66;;;3.89;36.23
57248;BME280;55809;46.618;10.764;2023-04-04T01:39:21;92746.81;;;3.92;35.94
57248;BME280;55809;46.618;10.764;2023-04-04T01:41:57;92737.59;;;3.86;35.73
57248;BME280;55809;46.618;10.764;2023-04-04T01:44:26;92751.50;;;3.98;35.39
57248;BME280;55809;46.618;10.764;2023-04-04T01:46:55;92753.75;;;3.96;36.08
57248;BME280;55809;46.618;10.764;2023-04-04T01:49:23;92759.84;;;3.97;35.71
57248;BME280;55809;46.618;10.764;2023-04-04T01:51:51;92753.31;;;3.94;35.38
57248;BME280;55809;46.618;10.764;2023-04-04T01:54:19;92764.53;;;4.04;34.47
57248;BME280;55809;46.618;10.764;2023-04-04T01:56:47;92749.13;;;3.93;34.71
57248;BME280;55809;46.618;10.764;2023-04-04T01:59:17;92755.91;;;3.87;35.15
57248;BME280;55809;46.618;10.764;2023-04-04T02:01:45;92767.47;;;3.95;35.07
57248;BME280;55809;46.618;10.764;2023-04-04T02:04:13;92771.97;;;3.91;35.25
57248;BME280;55809;46.618;10.764;2023-04-04T02:06:42;92760.63;;;3.97;34.90
57248;BME280;55809;46.618;10.764;2023-04-04T02:09:10;92758.31;;;3.96;34.50
57248;BME280;55809;46.618;10.764;2023-04-04T02:11:38;92763.97;;;3.91;34.38
57248;BME280;55809;46.618;10.764;2023-04-04T02:14:08;92762.19;;;3.98;34.45
57248;BME280;55809;46.618;10.764;2023-04-04T02:16:40;92759.09;;;3.96;34.30
57248;BME280;55809;46.618;10.764;2023-04-04T02:19:09;92762.53;;;3.97;34.11
57248;BME280;55809;46.618;10.764;2023-04-04T02:21:37;92759.81;;;3.93;34.97
57248;BME280;55809;46.618;10.764;2023-04-04T02:24:08;92766.22;;;3.89;35.01
57248;BME280;55809;46.618;10.764;2023-04-04T02:26:36;92757.72;;;3.80;35.52
57248;BME280;55809;46.618;10.764;2023-04-04T02:29:05;92758.47;;;3.80;35.20
57248;BME280;55809;46.618;10.764;2023-04-04T02:31:33;92754.28;;;3.79;35.07
57248;BME280;55809;46.618;10.764;2023-04-04T02:34:02;92763.88;;;3.84;35.07
57248;BME280;55809;46.618;10.764;2023-04-04T02:36:33;92759.34;;;3.88;34.77
57248;BME280;55809;46.618;10.764;2023-04-04T02:39:01;92755.03;;;3.80;34.79
57248;BME280;55809;46.618;10.764;2023-04-04T02:41:30;92750.72;;;3.71;34.71
57248;BME280;55809;46.618;10.764;2023-04-04T02:44:00;92760.38;;;3.80;35.10
57248;BME280;55809;46.618;10.764;2023-04-04T02:46:28;92761.84;;;3.77;35.22
57248;BME280;55809;46.618;10.764;2023-04-04T02:48:55;92735.63;;;3.56;34.51
57248;BME280;55809;46.618;10.764;2023-04-04T02:51:26;92761.81;;;3.73;34.69
57248;BME280;55809;46.618;10.764;2023-04-04T02:53:54;92708.84;;;3.49;34.55
57248;BME280;55809;46.618;10.764;2023-04-04T02:56:22;92754.53;;;3.70;34.05
57248;BME280;55809;46.618;10.764;2023-04-04T02:58:51;92761.38;;;3.71;34.07
57248;BME280;55809;46.618;10.764;2023-04-04T03:01:20;92759.44;;;3.68;34.32
57248;BME280;55809;46.618;10.764;2023-04-04T03:03:48;92761.75;;;3.70;34.77
57248;BME280;55809;46.618;10.764;2023-04-04T03:06:16;92760.22;;;3.69;33.63
57248;BME280;55809;46.618;10.764;2023-04-04T03:08:49;92767.44;;;3.68;34.20
57248;BME280;55809;46.618;10.764;2023-04-04T03:11:17;92739.97;;;3.41;34.45
57248;BME280;55809;46.618;10.764;2023-04-04T03:13:47;92766.56;;;3.61;34.67
57248;BME280;55809;46.618;10.764;2023-04-04T03:16:17;92750.88;;;3.56;34.79
57248;BME280;55809;46.618;10.764;2023-04-04T03:18:45;92768.91;;;3.62;35.15
57248;BME280;55809;46.618;10.764;2023-04-04T03:21:14;92749.41;;;3.35;35.45
57248;BME280;55809;46.618;10.764;2023-04-04T03:23:42;92742.69;;;3.22;35.68
57248;BME280;55809;46.618;10.764;2023-04-04T03:26:16;92758.34;;;3.46;34.77
57248;BME280;55809;46.618;10.764;2023-04-04T03:28:46;92751.47;;;3.45;34.53
57248;BME280;55809;46.618;10.764;2023-04-04T03:31:16;92674.00;;;2.89;34.85
57248;BME280;55809;46.618;10.764;2023-04-04T03:33:45;92753.25;;;3.38;34.18
57248;BME280;55809;46.618;10.764;2023-04-04T03:36:14;92750.69;;;3.45;34.59
57248;BME280;55809;46.618;10.764;2023-04-04T03:38:44;92738.78;;;3.39;34.61
57248;BME280;55809;46.618;10.764;2023-04-04T03:41:15;92751.06;;;3.43;35.55
57248;BME280;55809;46.618;10.764;2023-04-04T03:43:43;92745.00;;;3.46;35.18
57248;BME280;55809;46.618;10.764;2023-04-04T03:46:12;92746.00;;;3.38;35.76
57248;BME280;55809;46.618;10.764;2023-04-04T03:48:40;92754.63;;;3.28;35.67
57248;BME280;55809;46.618;10.764;2023-04-04T03:51:08;92755.38;;;3.28;35.10
57248;BME280;55809;46.618;10.764;2023-04-04T03:53:36;92750.41;;;3.27;35.78
57248;BME280;55809;46.618;10.764;2023-04-04T03:56:07;92747.31;;;3.25;35.46
57248;BME280;55809;46.618;10.764;2023-04-04T03:58:39;92751.91;;;3.24;35.73
57248;BME280;55809;46.618;10.764;2023-04-04T04:01:09;92722.50;;;2.98;36.17
57248;BME280;55809;46.618;10.764;2023-04-04T04:03:37;92747.88;;;3.11;35.84
57248;BME280;55809;46.618;10.764;2023-04-04T04:06:05;92757.38;;;2.89;36.47
57248;BME280;55809;46.618;10.764;2023-04-04T04:08:33;92745.41;;;2.79;37.06
57248;BME280;55809;46.618;10.764;2023-04-04T04:11:04;92748.25;;;2.67;37.05
57248;BME280;55809;46.618;10.764;2023-04-04T04:13:33;92751.47;;;2.76;37.02
57248;BME280;55809;46.618;10.764;2023-04-04T04:16:03;92693.75;;;2.22;36.92
57248;BME280;55809;46.618;10.764;2023-04-04T04:18:31;92762.34;;;2.68;37.35
57248;BME280;55809;46.618;10.764;2023-04-04T04:21:02;92759.94;;;2.63;37.45
57248;BME280;55809;46.618;10.764;2023-04-04T04:23:31;92763.81;;;2.65;37.58
57248;BME280;55809;46.618;10.764;2023-04-04T04:25:59;92761.91;;;2.66;37.41
57248;BME280;55809;46.618;10.764;2023-04-04T04:28:27;92755.97;;;2.53;37.47
57248;BME280;55809;46.618;10.764;2023-04-04T04:30:56;92718.41;;;2.19;37.56
57248;BME280;55809;46.618;10.764;2023-04-04T04:33:33;92769.56;;;2.48;37.78
57248;BME280;55809;46.618;10.764;2023-04-04T04:36:00;92760.81;;;2.47;37.49
57248;BME280;55809;46.618;10.764;2023-04-04T04:38:31;92763.41;;;2.44;37.17
57248;BME280;55809;46.618;10.764;2023-04-04T04:41:00;92760.44;;;2.49;37.44
57248;BME280;55809;46.618;10.764;2023-04-04T04:43:28;92771.31;;;2.59;37.30
57248;BME280;55809;46.618;10.764;2023-04-04T04:45:56;92774.59;;;2.53;37.35
57248;BME280;55809;46.618;10.764;2023-04-04T04:48:24;92770.53;;;2.59;37.50
57248;BME280;55809;46.618;10.764;2023-04-04T04:50:54;92773.13;;;2.55;37.41
57248;BME280;55809;46.618;10.764;2023-04-04T04:53:23;92755.56;;;2.31;37.03
57248;BME280;55809;46.618;10.764;2023-04-04T04:55:51;92777.63;;;2.51;37.30
57248;BME280;55809;46.618;10.764;2023-04-04T04:58:19;92780.94;;;2.64;37.25
57248;BME280;55809;46.618;10.764;2023-04-04T05:00:53;92758.41;;;2.62;37.22
57248;BME280;55809;46.618;10.764;2023-04-04T05:03:21;92779.50;;;2.90;36.32
57248;BME280;55809;46.618;10.764;2023-04-04T05:05:50;92754.91;;;2.77;36.06
57248;BME280;55809;46.618;10.764;2023-04-04T05:08:20;92784.03;;;3.32;35.56
57248;BME280;55809;46.618;10.764;2023-04-04T05:10:48;92773.59;;;4.26;33.72
57248;BME280;55809;46.618;10.764;2023-04-04T05:13:24;92779.59;;;4.79;32.91
57248;BME280;55809;46.618;10.764;2023-04-04T05:15:52;92779.81;;;5.41;31.94
57248;BME280;55809;46.618;10.764;2023-04-04T05:18:20;92778.78;;;5.53;31.06
57248;BME280;55809;46.618;10.764;2023-04-04T05:20:52;92784.66;;;5.70;30.80
57248;BME280;55809;46.618;10.764;2023-04-04T05:23:28;92780.28;;;5.99;31.40
57248;BME280;55809;46.618;10.764;2023-04-04T05:25:59;92789.91;;;6.03;32.92
57248;BME280;55809;46.618;10.764;2023-04-04T05:28:27;92787.91;;;5.93;34.84
57248;BME280;55809;46.618;10.764;2023-04-04T05:30:55;92776.69;;;5.80;35.57
57248;BME280;55809;46.618;10.764;2023-04-04T05:33:23;92789.50;;;6.01;35.23
57248;BME280;55809;46.618;10.764;2023-04-04T05:35:51;92780.19;;;5.88;34.44
57248;BME280;55809;46.618;10.764;2023-04-04T05:38:19;92780.47;;;5.76;36.62
57248;BME280;55809;46.618;10.764;2023-04-04T05:40:52;92787.16;;;5.93;36.71
57248;BME280;55809;46.618;10.764;2023-04-04T05:43:20;92744.84;;;5.68;36.16
57248;BME280;55809;46.618;10.764;2023-04-04T05:45:49;92786.56;;;6.24;35.82
57248;BME280;55809;46.618;10.764;2023-04-04T05:48:19;92775.88;;;6.28;35.26
57248;BME280;55809;46.618;10.764;2023-04-04T05:50:48;92772.13;;;6.43;34.62
57248;BME280;55809;46.618;10.764;2023-04-04T05:53:16;92774.81;;;6.43;34.82
57248;BME280;55809;46.618;10.764;2023-04-04T05:55:44;92746.41;;;6.28;34.50
57248;BME280;55809;46.618;10.764;2023-04-04T05:58:15;92734.94;;;6.38;34.25
57248;BME280;55809;46.618;10.764;2023-04-04T06:00:44;92766.09;;;6.68;34.39
57248;BME280;55809;46.618;10.764;2023-04-04T06:03:13;92763.88;;;6.88;34.66
57248;BME280;55809;46.618;10.764;2023-04-04T06:05:41;92768.16;;;7.07;34.69
57248;BME280;55809;46.618;10.764;2023-04-04T06:08:10;92765.47;;;7.14;34.45
57248;BME280;55809;46.618;10.764;2023-04-04T06:10:39;92737.47;;;7.00;34.55
57248;BME280;55809;46.618;10.764;2023-04-04T06:13:08;92753.22;;;7.27;33.72
57248;BME280;55809;46.618;10.764;2023-04-04T06:15:40;92759.78;;;7.33;33.86
57248;BME280;55809;46.618;10.764;2023-04-04T06:18:08;92758.22;;;7.21;32.55
57248;BME280;55809;46.618;10.764;2023-04-04T06:20:36;92757.84;;;7.34;34.00
57248;BME280;55809;46.618;10.764;2023-04-04T06:23:08;92753.28;;;7.48;33.20
57248;BME280;55809;46.618;10.764;2023-04-04T06:25:36;92756.75;;;7.67;33.37
57248;BME280;55809;46.618;10.764;2023-04-04T06:28:05;92749.81;;;7.62;33.54
57248;BME280;55809;46.618;10.764;2023-04-04T06:30:34;92713.41;;;7.47;34.50
57248;BME280;55809;46.618;10.764;2023-04-04T06:33:05;92756.34;;;7.47;33.32
57248;BME280;55809;46.618;10.764;2023-04-04T06:35:40;92753.63;;;7.18;35.10
57248;BME280;55809;46.618;10.764;2023-04-04T06:38:09;92747.16;;;7.48;33.87
57248;BME280;55809;46.618;10.764;2023-04-04T06:40:37;92752.91;;;7.71;33.51
57248;BME280;55809;46.618;10.764;2023-04-04T06:43:08;92708.78;;;7.47;33.06
57248;BME280;55809;46.618;10.764;2023-04-04T06:45:38;92744.81;;;7.82;34.39
57248;BME280;55809;46.618;10.764;2023-04-04T06:48:09;92734.44;;;8.06;33.28
57248;BME280;55809;46.618;10.764;2023-04-04T06:50:37;92740.56;;;8.20;33.46
57248;BME280;55809;46.618;10.764;2023-04-04T06:53:06;92709.50;;;7.98;33.13
57248;BME280;55809;46.618;10.764;2023-04-04T06:55:36;92709.06;;;8.21;33.24
57248;BME280;55809;46.618;10.764;2023-04-04T06:58:12;92729.38;;;8.51;31.93
57248;BME280;55809;46.618;10.764;2023-04-04T07:00:40;92723.25;;;8.29;32.58
57248;BME280;55809;46.618;10.764;2023-04-04T07:03:10;92719.44;;;8.26;32.02
57248;BME280;55809;46.618;10.764;2023-04-04T07:05:38;92707.88;;;8.43;32.49
57248;BME280;55809;46.618;10.764;2023-04-04T07:08:07;92677.09;;;8.52;32.18
57248;BME280;55809;46.618;10.764;2023-04-04T07:10:35;92692.47;;;8.51;30.55
57248;BME280;55809;46.618;10.764;2023-04-04T07:13:03;92695.91;;;8.59;31.79
57248;BME280;55809;46.618;10.764;2023-04-04T07:15:34;92699.25;;;8.81;32.04
57248;BME280;55809;46.618;10.764;2023-04-04T07:18:04;92700.34;;;8.90;32.15
57248;BME280;55809;46.618;10.764;2023-04-04T07:20:34;92694.41;;;9.21;31.90
57248;BME280;55809;46.618;10.764;2023-04-04T07:23:05;92697.59;;;9.08;31.07
57248;BME280;55809;46.618;10.764;2023-04-04T07:25:35;92697.47;;;9.23;31.51
57248;BME280;55809;46.618;10.764;2023-04-04T07:28:06;92695.84;;;9.36;31.60
57248;BME280;55809;46.618;10.764;2023-04-04T07:30:41;92682.13;;;9.20;30.35
57248;BME280;55809;46.618;10.764;2023-04-04T07:33:09;92633.28;;;9.14;30.80
57248;BME280;55809;46.618;10.764;2023-04-04T07:35:54;92674.84;;;9.65;29.78
57248;BME280;55809;46.618;10.764;2023-04-04T07:38:22;92669.22;;;9.90;31.52
57248;BME280;55809;46.618;10.764;2023-04-04T07:40:50;92667.00;;;9.81;30.88
57248;BME280;55809;46.618;10.764;2023-04-04T07:43:19;92672.28;;;9.92;30.79
57248;BME280;55809;46.618;10.764;2023-04-04T07:45:47;92655.28;;;9.99;30.10
57248;BME280;55809;46.618;10.764;2023-04-04T07:48:15;92667.84;;;10.13;28.97
57248;BME280;55809;46.618;10.764;2023-04-04T07:50:50;92658.34;;;10.01;30.50
57248;BME280;55809;46.618;10.764;2023-04-04T07:53:21;92664.75;;;10.14;29.63
57248;BME280;55809;46.618;10.764;2023-04-04T07:55:49;92664.19;;;10.33;29.80
57248;BME280;55809;46.618;10.764;2023-04-04T07:58:17;92656.28;;;10.50;29.83
57248;BME280;55809;46.618;10.764;2023-04-04T08:00:47;92658.47;;;10.28;29.29
57248;BME280;55809;46.618;10.764;2023-04-04T08:03:16;92661.50;;;10.64;29.12
57248;BME280;55809;46.618;10.764;2023-04-04T08:05:48;92655.09;;;10.82;27.84
57248;BME280;55809;46.618;10.764;2023-04-04T08:08:16;92634.59;;;10.57;28.17
57248;BME280;55809;46.618;10.764;2023-04-04T08:10:44;92643.81;;;10.90;29.28
57248;BME280;55809;46.618;10.764;2023-04-04T08:13:12;92648.13;;;11.11;28.66
57248;BME280;55809;46.618;10.764;2023-04-04T08:15:43;92644.56;;;11.18;28.28
57248;BME280;55809;46.618;10.764;2023-04-04T08:18:11;92646.34;;;11.01;26.78
57248;BME280;55809;46.618;10.764;2023-04-04T08:20:40;92643.44;;;11.15;27.88
57248;BME280;55809;46.618;10.764;2023-04-04T08:23:09;92634.59;;;11.38;28.23
57248;BME280;55809;46.618;10.764;2023-04-04T08:25:38;92636.47;;;11.41;27.13
57248;BME280;55809;46.618;10.764;2023-04-04T08:28:10;92638.72;;;11.70;26.91
57248;BME280;55809;46.618;10.764;2023-04-04T08:30:39;92633.91;;;11.58;26.62
57248;BME280;55809;46.618;10.764;2023-04-04T08:33:06;92629.56;;;11.40;27.51
57248;BME280;55809;46.618;10.764;2023-04-04T08:35:34;92629.44;;;11.71;26.23
57248;BME280;55809;46.618;10.764;2023-04-04T08:38:03;92611.94;;;11.79;26.07
57248;BME280;55809;46.618;10.764;2023-04-04T08:40:36;92614.81;;;11.92;26.35
57248;BME280;55809;46.618;10.764;2023-04-04T08:43:05;92606.66;;;12.15;26.92
57248;BME280;55809;46.618;10.764;2023-04-04T08:45:37;92616.16;;;12.24;25.53
57248;BME280;55809;46.618;10.764;2023-04-04T08:48:06;92618.53;;;12.41;26.80
57248;BME280;55809;46.618;10.764;2023-04-04T08:50:39;92575.31;;;11.98;25.31
57248;BME280;55809;46.618;10.764;2023-04-04T08:53:08;92613.03;;;12.05;26.23
57248;BME280;55809;46.618;10.764;2023-04-04T08:55:38;92610.81;;;12.40;26.48
57248;BME280;55809;46.618;10.764;2023-04-04T08:58:07;92618.03;;;12.27;25.79
57248;BME280;55809;46.618;10.764;2023-04-04T09:00:36;92608.47;;;12.22;26.20
57248;BME280;55809;46.618;10.764;2023-04-04T09:03:09;92603.59;;;12.13;26.49
57248;BME280;55809;46.618;10.764;2023-04-04T09:05:42;92599.84;;;12.07;26.11
57248;BME280;55809;46.618;10.764;2023-04-04T09:08:11;92601.59;;;12.57;25.64
57248;BME280;55809;46.618;10.764;2023-04-04T09:10:43;92594.38;;;12.87;26.67
57248;BME280;55809;46.618;10.764;2023-04-04T09:13:12;92576.41;;;12.77;25.62
57248;BME280;55809;46.618;10.764;2023-04-04T09:15:45;92593.47;;;13.10;24.72
57248;BME280;55809;46.618;10.764;2023-04-04T09:18:13;92589.56;;;12.95;24.27
57248;BME280;55809;46.618;10.764;2023-04-04T09:20:43;92585.44;;;13.06;25.42
57248;BME280;55809;46.618;10.764;2023-04-04T09:23:13;92591.28;;;13.21;25.91
57248;BME280;55809;46.618;10.764;2023-04-04T09:25:50;92587.97;;;12.97;24.25
57248;BME280;55809;46.618;10.764;2023-04-04T09:28:20;92575.75;;;12.89;24.01
57248;BME280;55809;46.618;10.764;2023-04-04T09:30:50;92554.69;;;12.24;24.84
57248;BME280;55809;46.618;10.764;2023-04-04T09:33:22;92580.88;;;12.67;24.00
57248;BME280;55809;46.618;10.764;2023-04-04T09:35:55;92566.59;;;12.99;24.35
57248;BME280;55809;46.618;10.764;2023-04-04T09:38:25;92564.81;;;12.93;23.32
57248;BME280;55809;46.618;10.764;2023-04-04T09:40:56;92561.72;;;12.94;25.96
57248;BME280;55809;46.618;10.764;2023-04-04T09:43:24;92563.66;;;13.10;24.96
57248;BME280;55809;46.618;10.764;2023-04-04T09:45:57;92526.22;;;12.72;25.50
57248;BME280;55809;46.618;10.764;2023-04-04T09:48:30;92558.41;;;13.03;25.01
57248;BME280;55809;46.618;10.764;2023-04-04T09:51:01;92552.50;;;13.24;25.84
57248;BME280;55809;46.618;10.764;2023-04-04T09:53:33;92554.44;;;13.07;24.53
57248;BME280;55809;46.618;10.764;2023-04-04T09:56:04;92561.41;;;13.41;25.18
57248;BME280;55809;46.618;10.764;2023-04-04T09:58:35;92542.75;;;13.59;23.12
57248;BME280;55809;46.618;10.764;2023-04-04T10:01:08;92541.44;;;13.64;24.40
57248;BME280;55809;46.618;10.764;2023-04-04T10:03:36;92547.06;;;13.57;23.47
57248;BME280;55809;46.618;10.764;2023-04-04T10:06:14;92517.44;;;13.33;24.00
57248;BME280;55809;46.618;10.764;2023-04-04T10:08:43;92549.69;;;13.60;25.83
57248;BME280;55809;46.618;10.764;2023-04-04T10:11:29;92531.56;;;13.57;22.53
57248;BME280;55809;46.618;10.764;2023-04-04T10:13:59;92541.09;;;13.33;24.23
57248;BME280;55809;46.618;10.764;2023-04-04T10:16:31;92535.28;;;13.47;24.38
57248;BME280;55809;46.618;10.764;2023-04-04T10:19:00;92530.03;;;13.56;23.07
57248;BME280;55809;46.618;10.764;2023-04-04T10:21:29;92527.31;;;13.56;24.58
57248;BME280;55809;46.618;10.764;2023-04-04T10:23:58;92536.91;;;13.28;22.78
57248;BME280;55809;46.618;10.764;2023-04-04T10:26:30;92519.81;;;13.77;24.52
57248;BME280;55809;46.618;10.764;2023-04-04T10:29:01;92490.22;;;13.82;25.15
57248;BME280;55809;46.618;10.764;2023-04-04T10:31:32;92515.34;;;13.70;24.03
57248;BME280;55809;46.618;10.764;2023-04-04T10:34:09;92515.28;;;13.87;24.02
57248;BME280;55809;46.618;10.764;2023-04-04T10:36:44;92506.31;;;13.90;23.88
57248;BME280;55809;46.618;10.764;2023-04-04T10:39:20;92509.88;;;13.87;23.51
57248;BME280;55809;46.618;10.764;2023-04-04T10:41:54;92507.00;;;14.06;24.87
57248;BME280;55809;46.618;10.764;2023-04-04T10:44:28;92489.63;;;14.04;25.47
57248;BME280;55809;46.618;10.764;2023-04-04T10:47:01;92496.63;;;14.43;23.66
57248;BME280;55809;46.618;10.764;2023-04-04T10:49:31;92499.44;;;13.85;20.95
57248;BME280;55809;46.618;10.764;2023-04-04T10:52:00;92470.31;;;14.15;24.16
57248;BME280;55809;46.618;10.764;2023-04-04T10:54:29;92490.09;;;14.28;23.22
57248;BME280;55809;46.618;10.764;2023-04-04T10:57:04;92457.06;;;14.17;24.53
57248;BME280;55809;46.618;10.764;2023-04-04T10:59:32;92491.25;;;14.14;23.85
57248;BME280;55809;46.618;10.764;2023-04-04T11:02:01;92478.91;;;14.13;25.30
57248;BME280;55809;46.618;10.764;2023-04-04T11:04:32;92470.88;;;14.22;23.31
57248;BME280;55809;46.618;10.764;2023-04-04T11:07:09;92479.59;;;13.88;25.64
57248;BME280;55809;46.618;10.764;2023-04-04T11:10:00;92469.56;;;14.14;22.64
57248;BME280;55809;46.618;10.764;2023-04-04T11:12:43;92464.06;;;14.43;24.57
57248;BME280;55809;46.618;10.764;2023-04-04T11:15:12;92467.63;;;14.40;24.30
57248;BME280;55809;46.618;10.764;2023-04-04T11:17:49;92466.19;;;14.10;23.96
57248;BME280;55809;46.618;10.764;2023-04-04T11:20:21;92459.81;;;14.42;24.33
57248;BME280;55809;46.618;10.764;2023-04-04T11:22:49;92463.53;;;14.48;25.98
57248;BME280;55809;46.618;10.764;2023-04-04T11:25:52;92454.91;;;14.37;25.60
57248;BME280;55809;46.618;10.764;2023-04-04T11:28:45;92454.13;;;14.11;23.85
57248;BME280;55809;46.618;10.764;2023-04-04T11:31:25;92454.91;;;14.24;23.01
57248;BME280;55809;46.618;10.764;2023-04-04T11:33:56;92453.25;;;14.14;24.01
57248;BME280;55809;46.618;10.764;2023-04-04T11:36:50;92450.88;;;14.03;24.38
57248;BME280;55809;46.618;10.764;2023-04-04T11:39:25;92451.00;;;14.13;24.89
57248;BME280;55809;46.618;10.764;2023-04-04T11:41:53;92450.03;;;14.19;24.25
57248;BME280;55809;46.618;10.764;2023-04-04T11:44:26;92441.56;;;14.30;21.72
57248;BME280;55809;46.618;10.764;2023-04-04T11:46:59;92437.13;;;14.49;22.60
57248;BME280;55809;46.618;10.764;2023-04-04T11:49:29;92427.53;;;14.44;25.16
57248;BME280;55809;46.618;10.764;2023-04-04T11:52:03;92438.78;;;14.59;23.75
57248;BME280;55809;46.618;10.764;2023-04-04T11:54:30;92446.81;;;14.75;25.55
57248;BME280;55809;46.618;10.764;2023-04-04T11:56:59;92436.81;;;14.72;21.42
57248;BME280;55809;46.618;10.764;2023-04-04T11:59:31;92432.91;;;14.48;22.75
57248;BME280;55809;46.618;10.764;2023-04-04T12:02:00;92439.72;;;14.40;25.14
57248;BME280;55809;46.618;10.764;2023-04-04T12:04:28;92438.84;;;14.17;25.27
57248;BME280;55809;46.618;10.764;2023-04-04T12:06:57;92430.75;;;13.88;23.81
57248;BME280;55809;46.618;10.764;2023-04-04T12:09:26;92442.34;;;13.76;23.97
57248;BME280;55809;46.618;10.764;2023-04-04T12:11:54;92412.06;;;13.19;23.46
57248;BME280;55809;46.618;10.764;2023-04-04T12:14:24;92421.22;;;13.25;22.46
57248;BME280;55809;46.618;10.764;2023-04-04T12:16:55;92386.44;;;13.07;24.24
57248;BME280;55809;46.618;10.764;2023-04-04T12:19:27;92426.13;;;13.30;24.29
57248;BME280;55809;46.618;10.764;2023-04-04T12:21:55;92427.75;;;13.28;26.52
57248;BME280;55809;46.618;10.764;2023-04-04T12:24:24;92433.00;;;13.19;27.32
57248;BME280;55809;46.618;10.764;2023-04-04T12:26:54;92433.09;;;12.99;26.90
57248;BME280;55809;46.618;10.764;2023-04-04T12:29:25;92431.69;;;12.78;22.93
57248;BME280;55809;46.618;10.764;2023-04-04T12:31:58;92421.13;;;12.67;24.01
57248;BME280;55809;46.618;10.764;2023-04-04T12:34:29;92429.84;;;12.58;26.35
57248;BME280;55809;46.618;10.764;2023-04-04T12:36:57;92427.22;;;12.55;27.66
57248;BME280;55809;46.618;10.764;2023-04-04T12:39:29;92424.25;;;12.49;27.97
57248;BME280;55809;46.618;10.764;2023-04-04T12:42:00;92427.69;;;12.50;29.02
57248;BME280;55809;46.618;10.764;2023-04-04T12:44:31;92425.84;;;12.47;24.68
57248;BME280;55809;46.618;10.764;2023-04-04T12:47:03;92408.25;;;12.38;26.32
57248;BME280;55809;46.618;10.764;2023-04-04T12:49:37;92423.75;;;12.54;28.49
57248;BME280;55809;46.618;10.764;2023-04-04T12:52:14;92414.00;;;12.57;26.33
57248;BME280;55809;46.618;10.764;2023-04-04T12:54:57;92399.03;;;12.36;19.18
57248;BME280;55809;46.618;10.764;2023-04-04T12:57:43;92406.81;;;12.50;19.60
57248;BME280;55809;46.618;10.764;2023-04-04T13:00:18;92417.72;;;12.63;21.74
57248;BME280;55809;46.618;10.764;2023-04-04T13:02:54;92412.22;;;12.50;23.01
57248;BME280;55809;46.618;10.764;2023-04-04T13:05:24;92407.31;;;12.45;23.78
57248;BME280;55809;46.618;10.764;2023-04-04T13:08:04;92414.69;;;12.44;22.48
57248;BME280;55809;46.618;10.764;2023-04-04T13:10:56;92417.72;;;12.47;22.78
57248;BME280;55809;46.618;10.764;2023-04-04T13:13:32;92409.94;;;12.49;21.04